Time;durP1;ratioP1;P1;durP2;ratioP2;P2;SDS_P1;SDS_P2;PMS_P1;PMS_P2;Temp;Humidity;BMP_temperature;BMP_pressure;BME280_temperature;BME280_humidity;BME280_pressure;Samples;Min_cycle;Max_cycle;Signal;HPM_P1;HPM_P2
2023/06/13 00:03:33;;;;;;;10.25;9.95;;;16.90;99.90;;;;;;5075200;28;20219;-83
2023/06/13 00:06:09;;;;;;;10.35;10.05;;;16.90;99.90;;;;;;5069311;28;20219;-83
2023/06/13 00:11:25;;;;;;;10.25;9.95;;;16.80;99.90;;;;;;5069845;28;20299;-82
2023/06/13 00:14:01;;;;;;;9.70;9.40;;;16.80;99.90;;;;;;5081380;28;20282;-83
2023/06/13 00:19:23;;;;;;;9.95;9.65;;;16.80;99.90;;;;;;5080264;28;20274;-85
2023/06/13 00:21:59;;;;;;;9.90;9.60;;;16.70;99.90;;;;;;5081079;28;20227;-83
2023/06/13 00:24:30;;;;;;;9.75;9.45;;;16.70;99.90;;;;;;5072912;28;20219;-83
2023/06/13 00:27:06;;;;;;;9.80;9.50;;;16.70;99.90;;;;;;5068486;28;20231;-83
2023/06/13 00:29:37;;;;;;;9.80;9.50;;;16.70;99.90;;;;;;5068442;28;20282;-83
2023/06/13 00:32:06;;;;;;;9.50;9.20;;;16.60;99.90;;;;;;5068041;28;20238;-84
2023/06/13 00:34:43;;;;;;;9.88;9.57;;;16.60;99.90;;;;;;5067153;28;20289;-82
2023/06/13 00:37:20;;;;;;;9.80;9.50;;;16.60;99.90;;;;;;5067477;28;20238;-82
2023/06/13 00:39:51;;;;;;;10.00;9.70;;;16.60;99.90;;;;;;5066115;28;20285;-83
2023/06/13 00:42:21;;;;;;;9.50;9.20;;;16.50;99.90;;;;;;5067030;28;20234;-82
2023/06/13 00:44:50;;;;;;;9.77;9.48;;;16.50;99.90;;;;;;5066280;28;20245;-82
2023/06/13 00:47:20;;;;;;;9.63;9.32;;;16.40;99.90;;;;;;5065622;28;20214;-82
2023/06/13 00:49:56;;;;;;;9.75;9.45;;;16.40;99.90;;;;;;5065765;28;20238;-82
2023/06/13 00:52:27;;;;;;;9.63;9.32;;;16.40;99.90;;;;;;5066431;28;20273;-82
2023/06/13 00:54:55;;;;;;;10.02;9.73;;;16.40;99.90;;;;;;5064777;28;20223;-82
2023/06/13 00:57:27;;;;;;;9.80;9.50;;;16.30;99.90;;;;;;5065627;28;20274;-82
2023/06/13 00:59:54;;;;;;;9.65;9.35;;;16.30;99.90;;;;;;5065419;28;20242;-82
2023/06/13 01:02:25;;;;;;;9.80;9.50;;;16.30;99.90;;;;;;5065325;28;20234;-82
2023/06/13 01:05:04;;;;;;;9.60;9.30;;;16.20;99.90;;;;;;5064877;28;20243;-80
2023/06/13 01:07:34;;;;;;;9.90;9.60;;;16.20;99.90;;;;;;5065638;28;20242;-82
2023/06/13 01:10:03;;;;;;;10.00;9.70;;;16.20;99.90;;;;;;5065129;28;20329;-82
2023/06/13 01:12:40;;;;;;;9.82;9.52;;;16.10;99.90;;;;;;5065774;28;20243;-83
2023/06/13 01:17:58;;;;;;;9.60;9.30;;;16.00;99.90;;;;;;5066205;28;20225;-83
2023/06/13 01:23:24;;;;;;;10.20;9.90;;;16.00;99.90;;;;;;5069444;28;20377;-82
2023/06/13 01:26:10;;;;;;;10.07;9.77;;;16.00;99.90;;;;;;5067911;28;20290;-82
2023/06/13 01:28:51;;;;;;;9.65;9.35;;;15.90;99.90;;;;;;5067157;28;20254;-83
2023/06/13 01:31:30;;;;;;;9.35;9.05;;;15.90;99.90;;;;;;5066661;28;20234;-83
2023/06/13 01:34:02;;;;;;;9.48;9.18;;;15.80;99.90;;;;;;5065319;28;20229;-82
2023/06/13 01:36:41;;;;;;;9.80;9.50;;;15.80;99.90;;;;;;5065479;28;20223;-83
2023/06/13 01:39:10;;;;;;;9.70;9.40;;;15.70;99.90;;;;;;5066145;28;20231;-83
2023/06/13 01:41:41;;;;;;;9.40;9.10;;;15.70;99.90;;;;;;5065572;28;20234;-83
2023/06/13 01:44:19;;;;;;;9.27;8.98;;;15.70;99.90;;;;;;5065393;28;20238;-84
2023/06/13 01:46:58;;;;;;;9.35;9.05;;;15.70;99.90;;;;;;5065360;28;20329;-82
2023/06/13 01:49:37;;;;;;;9.02;8.82;;;15.70;99.90;;;;;;5065956;28;20274;-82
2023/06/13 01:52:14;;;;;;;9.40;9.10;;;15.70;99.90;;;;;;5064468;28;20231;-82
2023/06/13 01:54:52;;;;;;;9.70;9.40;;;15.60;99.90;;;;;;5065092;28;20230;-83
2023/06/13 01:57:30;;;;;;;9.55;9.25;;;15.60;99.90;;;;;;5064997;28;20226;-82
2023/06/13 02:00:07;;;;;;;9.50;9.20;;;15.60;99.90;;;;;;5069654;28;20262;-82
2023/06/13 02:02:37;;;;;;;9.27;8.98;;;15.60;99.90;;;;;;5070882;28;20257;-82
2023/06/13 02:05:06;;;;;;;9.40;9.10;;;15.60;99.90;;;;;;5062818;28;20234;-83
2023/06/13 02:07:36;;;;;;;9.38;9.07;;;15.60;99.90;;;;;;5063770;28;20237;-83
2023/06/13 02:10:06;;;;;;;9.27;8.98;;;15.60;99.90;;;;;;5064355;28;20254;-83
2023/06/13 02:12:34;;;;;;;9.32;9.02;;;15.60;99.90;;;;;;5065980;28;20298;-82
2023/06/13 02:15:14;;;;;;;9.45;9.15;;;15.50;99.90;;;;;;5065110;28;20235;-83
2023/06/13 02:17:43;;;;;;;9.20;8.93;;;15.50;99.90;;;;;;5065475;28;20285;-83
2023/06/13 02:20:15;;;;;;;9.35;9.05;;;15.50;99.90;;;;;;5065261;28;20223;-83
2023/06/13 02:22:43;;;;;;;9.00;8.80;;;15.50;99.90;;;;;;5065984;28;20237;-82
2023/06/13 02:25:14;;;;;;;9.02;8.82;;;15.50;99.90;;;;;;5065368;28;20242;-82
2023/06/13 02:27:42;;;;;;;8.80;8.60;;;15.50;99.90;;;;;;5065791;28;20227;-82
2023/06/13 02:30:21;;;;;;;8.90;8.70;;;15.50;99.90;;;;;;5065947;28;20230;-83
2023/06/13 02:32:50;;;;;;;8.90;8.70;;;15.40;99.90;;;;;;5067126;28;20215;-83
2023/06/13 02:35:22;;;;;;;8.82;8.63;;;15.40;99.90;;;;;;5068180;28;20223;-83
2023/06/13 02:37:58;;;;;;;8.82;8.63;;;15.30;99.90;;;;;;5067052;28;20223;-82
2023/06/13 02:40:26;;;;;;;8.85;8.65;;;15.20;99.90;;;;;;5067528;28;20218;-83
2023/06/13 02:42:55;;;;;;;10.13;9.82;;;15.20;99.90;;;;;;5068114;28;20273;-83
2023/06/13 02:45:27;;;;;;;10.05;9.75;;;15.20;99.90;;;;;;5067464;28;20265;-83
2023/06/13 02:47:55;;;;;;;10.27;9.98;;;15.10;99.90;;;;;;5066349;28;20211;-83
2023/06/13 02:50:25;;;;;;;10.00;9.70;;;15.10;99.90;;;;;;5069742;28;20294;-82
2023/06/13 02:52:53;;;;;;;10.32;10.02;;;15.00;99.90;;;;;;5072697;28;20239;-83
2023/06/13 02:55:24;;;;;;;10.18;9.88;;;15.00;99.90;;;;;;5072926;28;20245;-83
2023/06/13 02:57:52;;;;;;;10.20;9.90;;;15.00;99.90;;;;;;5072336;28;20227;-82
2023/06/13 03:00:21;;;;;;;10.10;9.80;;;15.00;99.90;;;;;;5071405;28;20247;-83
2023/06/13 03:03:03;;;;;;;10.80;10.50;;;15.00;99.90;;;;;;5070875;28;20292;-83
2023/06/13 03:05:32;;;;;;;10.63;10.32;;;14.90;99.90;;;;;;5071042;28;20345;-83
2023/06/13 03:08:00;;;;;;;10.70;10.40;;;14.90;99.90;;;;;;5073877;28;20213;-82
2023/06/13 03:10:28;;;;;;;10.98;10.68;;;14.90;99.90;;;;;;5072367;28;20231;-83
2023/06/13 03:12:59;;;;;;;10.82;10.52;;;14.90;99.90;;;;;;5072784;28;20227;-82
2023/06/13 03:15:28;;;;;;;10.48;10.18;;;14.90;99.90;;;;;;5072655;28;20317;-82
2023/06/13 03:17:59;;;;;;;10.60;10.30;;;14.90;99.90;;;;;;5073136;28;20282;-82
2023/06/13 03:20:27;;;;;;;10.30;10.00;;;14.90;99.90;;;;;;5072428;28;20285;-83
2023/06/13 03:22:55;;;;;;;10.50;10.20;;;14.90;99.90;;;;;;5072580;28;20233;-84
2023/06/13 03:25:25;;;;;;;10.10;9.80;;;14.80;99.90;;;;;;5072125;28;20253;-83
2023/06/13 03:27:54;;;;;;;10.30;10.00;;;14.70;99.90;;;;;;5076558;28;20230;-82
2023/06/13 03:30:24;;;;;;;10.13;9.82;;;14.70;99.90;;;;;;5076735;28;20218;-83
2023/06/13 03:33:02;;;;;;;10.38;10.07;;;14.70;99.90;;;;;;5076827;28;20268;-83
2023/06/13 03:35:31;;;;;;;10.60;10.30;;;14.60;99.90;;;;;;5077025;28;20233;-83
2023/06/13 03:38:02;;;;;;;10.40;10.10;;;14.60;99.90;;;;;;5076321;28;20242;-83
2023/06/13 03:45:56;;;;;;;9.90;9.60;;;14.50;99.90;;;;;;5081968;28;20234;-83
2023/06/13 03:48:28;;;;;;;10.20;9.90;;;14.50;99.90;;;;;;5080409;28;20215;-83
2023/06/13 04:14:26;;;;;;;10.57;10.27;;;14.40;99.90;;;;;;5082216;28;20329;-89
2023/06/13 04:17:05;;;;;;;10.48;10.18;;;14.50;99.90;;;;;;5084646;28;20226;-89
2023/06/13 04:19:40;;;;;;;10.65;10.35;;;14.50;99.90;;;;;;5084153;28;20232;-89
2023/06/13 04:22:26;;;;;;;;;;;;;;;;;;;;;
2023/06/13 04:25:07;;;;;;;10.40;10.10;;;14.50;99.90;;;;;;5063492;28;20319;-89
2023/06/13 04:27:45;;;;;;;10.73;10.43;;;14.30;99.90;;;;;;5063765;28;20261;-89
2023/06/13 04:30:22;;;;;;;10.48;10.18;;;14.40;99.90;;;;;;5064589;28;20257;-89
2023/06/13 04:38:43;;;;;;;10.38;10.07;;;14.50;99.90;;;;;;5041125;28;20219;-85
2023/06/13 04:41:22;;;;;;;10.40;10.10;;;14.50;99.90;;;;;;5050166;28;20246;-90
2023/06/13 04:44:16;;;;;;;10.40;10.10;;;14.60;99.90;;;;;;5057152;28;20235;-89
2023/06/13 04:46:57;;;;;;;10.25;9.95;;;14.60;99.90;;;;;;5044267;28;20246;-88
2023/06/13 04:49:40;;;;;;;10.50;10.20;;;14.70;99.90;;;;;;5043743;28;20231;-89
2023/06/13 04:52:15;;;;;;;10.60;10.30;;;14.90;99.90;;;;;;5043446;28;20246;-89
2023/06/13 04:54:52;;;;;;;10.85;10.55;;;15.00;99.90;;;;;;5043440;28;20223;-89
2023/06/13 04:57:27;;;;;;;10.80;10.50;;;15.10;99.90;;;;;;5043356;28;20226;-88
2023/06/13 05:00:09;;;;;;;10.60;10.30;;;15.20;99.90;;;;;;5043647;28;20230;-89
2023/06/13 05:03:06;;;;;;;10.60;10.30;;;15.20;99.90;;;;;;5043427;28;20235;-89
2023/06/13 05:05:51;;;;;;;10.65;10.35;;;15.30;99.90;;;;;;5042989;28;20235;-89
2023/06/13 05:08:49;;;;;;;10.27;9.98;;;15.40;99.90;;;;;;5042505;28;20235;-89
2023/06/13 05:11:22;;;;;;;10.30;10.00;;;15.40;99.90;;;;;;5043600;28;20289;-89
2023/06/13 05:16:48;;;;;;;10.13;9.82;;;15.40;99.90;;;;;;5042331;28;20223;-89
2023/06/13 05:19:26;;;;;;;10.35;10.05;;;15.50;99.90;;;;;;5043780;28;20254;-89
2023/06/13 05:22:08;;;;;;;10.40;10.10;;;15.60;99.90;;;;;;5043488;28;20239;-89
2023/06/13 05:27:47;;;;;;;10.65;10.35;;;15.80;99.90;;;;;;5037918;28;20239;-89
2023/06/13 05:30:36;;;;;;;10.60;10.30;;;15.90;99.90;;;;;;5042680;28;20227;-90
2023/06/13 05:33:20;;;;;;;10.43;10.13;;;16.00;99.90;;;;;;5042827;28;20283;-89
2023/06/13 05:36:32;;;;;;;10.57;10.27;;;16.00;99.90;;;;;;5042134;28;20234;-90
2023/06/13 05:39:16;;;;;;;10.65;10.35;;;16.10;99.90;;;;;;5042308;28;20259;-88
2023/06/13 05:42:20;;;;;;;;;;;;;;;;;;;;;
2023/06/13 05:45:05;;;;;;;10.70;10.40;;;16.30;99.90;;;;;;5023125;28;20304;-89
2023/06/13 06:03:56;;;;;;;10.35;10.05;;;17.10;99.90;;;;;;5022080;28;20283;-88
2023/06/13 06:06:39;;;;;;;;;;;;;;;;;;;;;
2023/06/13 06:18:30;;;;;;;10.30;10.00;;;17.70;99.90;;;;;;5021381;28;20224;-90
2023/06/13 06:21:14;;;;;;;10.23;9.93;;;17.80;99.90;;;;;;5023653;28;20238;-89
2023/06/13 06:23:47;;;;;;;10.40;10.10;;;18.00;99.90;;;;;;5024141;28;20259;-90
2023/06/13 06:26:26;;;;;;;9.95;9.65;;;18.10;99.90;;;;;;5023373;28;20224;-90
2023/06/13 06:28:54;;;;;;;10.15;9.85;;;18.10;99.90;;;;;;5022977;28;20410;-88
2023/06/13 06:31:24;;;;;;;10.00;9.70;;;18.30;99.90;;;;;;5026949;28;20231;-88
2023/06/13 06:50:09;;;;;;;10.00;9.70;;;19.20;99.90;;;;;;5044357;28;20227;-87
2023/06/13 07:06:25;;;;;;;10.20;9.90;;;19.70;99.90;;;;;;4960445;28;20238;-87
2023/06/13 07:09:30;;;;;;;9.90;9.60;;;19.80;99.90;;;;;;5021949;28;20229;-86
2023/06/13 07:13:23;;;;;;;;;;;;;;;;;;;;;
2023/06/13 07:25:46;;;;;;;9.77;9.48;;;20.00;99.90;;;;;;4999098;28;20264;-85
2023/06/13 07:29:15;;;;;;;9.73;9.43;;;20.20;99.90;;;;;;5016693;28;20236;-86
2023/06/13 07:34:50;;;;;;;9.98;9.68;;;20.40;99.90;;;;;;5021200;28;20307;-88
2023/06/13 07:41:25;;;;;;;9.93;9.63;;;20.60;99.90;;;;;;4964603;28;20237;-88
2023/06/13 07:47:38;;;;;;;10.00;9.70;;;20.60;99.90;;;;;;5037775;28;20254;-89
2023/06/13 07:50:14;;;;;;;9.90;9.60;;;20.70;99.90;;;;;;5041260;28;20234;-91
2023/06/13 07:52:47;;;;;;;10.23;9.93;;;20.80;99.90;;;;;;5041456;28;20234;-90
2023/06/13 07:55:50;;;;;;;;;;;;;;;;;;;;;
2023/06/13 07:58:25;;;;;;;10.48;10.18;;;21.00;99.90;;;;;;5042976;28;20832;-89
2023/06/13 08:01:21;;;;;;;10.68;10.38;;;21.20;99.90;;;;;;5052522;28;20226;-86
2023/06/13 08:07:04;;;;;;;10.50;10.20;;;21.40;99.90;;;;;;5230250;23;20416;-89
2023/06/13 08:15:37;;;;;;;10.40;10.10;;;21.30;99.90;;;;;;5051415;28;20231;-87
2023/06/13 08:21:05;;;;;;;10.55;10.25;;;21.50;99.90;;;;;;5030268;28;20236;-89
2023/06/13 08:24:31;;;;;;;10.30;10.00;;;21.50;99.90;;;;;;5024040;28;20292;-86
2023/06/13 08:27:10;;;;;;;10.60;10.30;;;21.70;99.90;;;;;;5023019;28;20335;-86
2023/06/13 08:29:41;;;;;;;10.27;9.98;;;21.70;99.90;;;;;;5022210;28;20274;-87
2023/06/13 08:32:19;;;;;;;10.23;9.93;;;21.70;99.90;;;;;;5022938;28;20251;-87
2023/06/13 08:34:49;;;;;;;10.40;10.10;;;21.70;99.90;;;;;;5022905;28;20240;-86
2023/06/13 08:37:21;;;;;;;10.70;10.40;;;21.70;99.90;;;;;;5024838;28;20232;-86
2023/06/13 08:40:39;;;;;;;;;;;;;;;;;;;;;
2023/06/13 08:45:56;;;;;;;10.80;10.50;;;21.70;99.90;;;;;;5021752;28;20255;-85
2023/06/13 08:48:27;;;;;;;10.57;10.27;;;21.90;99.90;;;;;;5036034;28;20232;-86
2023/06/13 08:50:55;;;;;;;10.70;10.40;;;22.20;99.90;;;;;;5029112;28;20224;-83
2023/06/13 08:54:19;;;;;;;10.70;10.40;;;22.50;99.90;;;;;;5025973;28;20255;-88
2023/06/13 08:56:47;;;;;;;10.40;10.10;;;22.70;99.90;;;;;;5030823;28;20282;-86
2023/06/13 08:59:24;;;;;;;10.50;10.20;;;22.90;99.90;;;;;;5030004;28;20254;-86
2023/06/13 09:01:53;;;;;;;10.40;10.10;;;22.90;99.90;;;;;;5026968;28;20242;-86
2023/06/13 09:04:23;;;;;;;10.10;9.80;;;22.80;99.90;;;;;;5032078;28;20224;-85
2023/06/13 09:07:14;;;;;;;10.10;9.80;;;22.90;99.90;;;;;;5027056;28;20339;-87
2023/06/13 09:09:48;;;;;;;10.40;10.10;;;23.10;99.90;;;;;;5014788;28;20236;-89
2023/06/13 09:12:18;;;;;;;10.10;9.80;;;23.30;99.90;;;;;;5022618;28;20240;-90
2023/06/13 09:17:43;;;;;;;10.30;10.00;;;23.80;99.90;;;;;;5008413;28;20224;-88
2023/06/13 09:20:12;;;;;;;10.40;10.10;;;24.00;99.90;;;;;;5022010;28;20259;-87
2023/06/13 09:22:41;;;;;;;10.50;10.20;;;24.00;99.90;;;;;;5021842;28;20224;-86
2023/06/13 09:25:16;;;;;;;10.70;10.40;;;24.20;99.90;;;;;;5021832;28;20289;-87
2023/06/13 09:27:43;;;;;;;10.90;10.60;;;24.50;99.90;;;;;;5021333;28;20357;-86
2023/06/13 09:30:20;;;;;;;10.60;10.30;;;24.70;99.90;;;;;;5021564;28;20306;-85
2023/06/13 09:38:50;;;;;;;10.60;10.30;;;24.50;99.90;;;;;;5011063;28;20215;-86
2023/06/13 09:41:30;;;;;;;10.80;10.50;;;24.50;99.90;;;;;;5021993;28;20283;-86
2023/06/13 09:44:05;;;;;;;10.70;10.40;;;24.70;99.90;;;;;;5024626;28;20242;-84
2023/06/13 09:47:22;;;;;;;10.25;9.95;;;24.80;99.90;;;;;;5029748;28;20239;-86
2023/06/13 09:50:26;;;;;;;10.63;10.32;;;24.80;99.90;;;;;;5022113;28;20243;-86
2023/06/13 09:53:19;;;;;;;10.93;10.63;;;25.00;99.90;;;;;;5023953;28;20298;-87
2023/06/13 09:55:49;;;;;;;10.70;10.40;;;25.20;99.90;;;;;;5021349;28;20248;-85
2023/06/13 09:58:38;;;;;;;10.55;10.25;;;25.40;99.90;;;;;;5022090;28;20252;-88
2023/06/13 10:01:47;;;;;;;10.63;10.32;;;25.70;99.90;;;;;;5022734;28;20243;-89
2023/06/13 10:04:56;;;;;;;10.70;10.40;;;25.60;99.90;;;;;;5022239;28;20232;-85
2023/06/13 10:10:36;;;;;;;10.50;10.20;;;25.30;99.90;;;;;;5023695;28;20280;-84
2023/06/13 10:13:08;;;;;;;10.60;10.30;;;25.20;99.90;;;;;;5064039;23;20236;-85
2023/06/13 10:15:47;;;;;;;10.63;10.32;;;25.40;99.90;;;;;;5020458;28;20280;-85
2023/06/13 10:18:23;;;;;;;11.02;10.73;;;25.60;99.90;;;;;;5021446;28;20299;-88
2023/06/13 10:21:02;;;;;;;10.70;10.40;;;25.90;99.90;;;;;;5022535;28;20322;-85
2023/06/13 10:23:34;;;;;;;11.15;10.85;;;26.30;99.90;;;;;;5041885;28;20239;-86
2023/06/13 10:26:11;;;;;;;10.63;10.32;;;26.50;99.90;;;;;;5042757;28;20314;-89
2023/06/13 10:29:07;;;;;;;10.70;10.40;;;26.50;99.90;;;;;;5042184;28;20231;-87
2023/06/13 10:31:52;;;;;;;10.80;10.50;;;26.60;99.90;;;;;;5048163;28;20255;-87
2023/06/13 10:38:33;;;;;;;11.00;10.70;;;26.60;99.90;;;;;;5060404;28;20212;-84
2023/06/13 10:41:36;;;;;;;10.80;10.50;;;26.30;99.90;;;;;;5056080;28;20267;-82
2023/06/13 10:44:10;;;;;;;10.85;10.55;;;26.00;99.90;;;;;;5041916;28;20233;-85
2023/06/13 10:46:40;;;;;;;11.07;10.77;;;25.50;99.90;;;;;;5041576;28;20236;-86
2023/06/13 10:49:19;;;;;;;11.10;10.80;;;25.60;99.90;;;;;;5041758;28;20331;-83
2023/06/13 10:51:48;;;;;;;11.00;10.70;;;25.70;99.90;;;;;;5041541;28;20286;-85
2023/06/13 10:54:26;;;;;;;10.82;10.52;;;25.70;99.90;;;;;;5041249;28;20286;-85
2023/06/13 10:57:15;;;;;;;10.68;10.38;;;25.70;99.90;;;;;;5040822;28;20231;-85
2023/06/13 10:59:43;;;;;;;10.70;10.40;;;25.50;99.90;;;;;;5041088;28;20318;-85
2023/06/13 11:02:22;;;;;;;10.90;10.60;;;25.50;99.90;;;;;;5041340;28;20250;-88
2023/06/13 11:05:01;;;;;;;10.90;10.60;;;25.80;99.90;;;;;;5041976;28;20285;-84
2023/06/13 11:10:24;;;;;;;10.98;10.68;;;26.30;99.90;;;;;;5041227;28;20216;-86
2023/06/13 11:12:54;;;;;;;11.00;10.70;;;26.40;99.90;;;;;;5040237;28;20243;-85
2023/06/13 11:15:23;;;;;;;10.98;10.68;;;26.50;99.90;;;;;;5039820;28;20234;-84
2023/06/13 11:18:30;;;;;;;10.98;10.68;;;26.60;99.90;;;;;;5039782;28;20290;-82
2023/06/13 11:20:59;;;;;;;10.95;10.65;;;26.70;99.90;;;;;;5039827;28;20227;-85
2023/06/13 11:23:54;;;;;;;10.90;10.60;;;26.70;99.90;;;;;;5039913;28;20270;-85
2023/06/13 11:26:25;;;;;;;10.57;10.27;;;26.70;99.90;;;;;;5039660;28;20227;-86
2023/06/13 11:28:54;;;;;;;10.88;10.57;;;26.60;99.90;;;;;;5039812;28;20245;-85
2023/06/13 11:31:22;;;;;;;11.10;10.80;;;26.90;99.90;;;;;;5039559;28;20235;-86
2023/06/13 11:33:53;;;;;;;10.55;10.25;;;27.40;99.90;;;;;;5042764;28;20251;-87
2023/06/13 11:36:20;;;;;;;10.70;10.40;;;27.50;99.90;;;;;;5041556;28;20252;-86
2023/06/13 11:38:58;;;;;;;10.63;10.32;;;27.60;99.90;;;;;;5036866;28;20235;-86
2023/06/13 11:41:36;;;;;;;10.63;10.32;;;27.60;99.90;;;;;;5039467;28;20235;-86
2023/06/13 11:44:06;;;;;;;10.50;10.20;;;27.50;99.90;;;;;;5039914;28;20231;-86
2023/06/13 11:46:39;;;;;;;10.60;10.30;;;27.60;99.90;;;;;;5040160;28;20231;-85
2023/06/13 11:49:07;;;;;;;10.70;10.40;;;27.70;99.90;;;;;;5043581;28;20236;-86
2023/06/13 11:51:36;;;;;;;10.77;10.48;;;27.80;99.90;;;;;;5042833;28;20257;-86
2023/06/13 11:54:05;;;;;;;11.02;10.73;;;28.10;99.90;;;;;;5045546;28;20235;-85
2023/06/13 11:56:40;;;;;;;10.80;10.50;;;28.40;99.90;;;;;;5054864;28;20226;-85
2023/06/13 11:59:20;;;;;;;10.88;10.57;;;28.60;99.90;;;;;;5053430;28;20242;-84
2023/06/13 12:01:52;;;;;;;10.70;10.40;;;29.00;99.90;;;;;;5050111;28;20258;-86
2023/06/13 12:04:20;;;;;;;10.85;10.55;;;29.20;99.90;;;;;;5051158;28;20231;-84
2023/06/13 12:06:49;;;;;;;10.73;10.43;;;29.20;98.30;;;;;;5054808;28;20235;-85
2023/06/13 12:09:18;;;;;;;10.63;10.32;;;28.70;98.50;;;;;;5055669;28;20288;-84
2023/06/13 12:11:56;;;;;;;10.80;10.50;;;28.30;99.60;;;;;;5064829;28;20231;-83
2023/06/13 12:14:28;;;;;;;10.75;10.45;;;28.10;99.90;;;;;;5065090;28;20300;-84
2023/06/13 12:16:59;;;;;;;10.70;10.40;;;28.30;99.90;;;;;;5060370;28;20287;-83
2023/06/13 12:19:26;;;;;;;10.93;10.63;;;28.70;99.90;;;;;;5057893;28;20243;-86
2023/06/13 12:22:06;;;;;;;10.43;10.13;;;29.20;99.90;;;;;;5048835;28;20283;-84
2023/06/13 12:24:34;;;;;;;10.60;10.30;;;29.60;99.40;;;;;;5042981;28;20227;-85
2023/06/13 12:27:14;;;;;;;10.88;10.57;;;30.00;97.80;;;;;;5042869;28;20231;-86
2023/06/13 12:29:42;;;;;;;10.75;10.45;;;30.00;98.80;;;;;;5042458;28;20239;-85
2023/06/13 12:32:21;;;;;;;10.98;10.68;;;30.20;99.90;;;;;;5042433;28;20227;-85
2023/06/13 12:34:51;;;;;;;11.00;10.70;;;30.40;96.30;;;;;;5042841;28;20317;-86
2023/06/13 12:37:19;;;;;;;10.57;10.27;;;29.90;99.50;;;;;;5042808;28;20247;-86
2023/06/13 12:40:07;;;;;;;10.48;10.18;;;29.50;96.80;;;;;;5042903;28;20227;-85
2023/06/13 12:42:42;;;;;;;11.20;10.90;;;29.10;99.10;;;;;;5045576;28;20246;-82
2023/06/13 12:45:13;;;;;;;11.10;10.80;;;29.40;98.20;;;;;;5055873;28;20284;-81
2023/06/13 12:47:43;;;;;;;10.80;10.50;;;29.70;99.60;;;;;;5055043;28;20263;-86
2023/06/13 12:50:13;;;;;;;10.65;10.35;;;30.20;97.10;;;;;;5056140;28;20258;-86
2023/06/13 12:52:42;;;;;;;10.40;10.10;;;30.30;96.20;;;;;;5050610;28;20259;-87
2023/06/13 12:55:11;;;;;;;10.88;10.57;;;30.10;97.10;;;;;;5044699;28;20250;-86
2023/06/13 12:57:52;;;;;;;10.80;10.50;;;30.00;98.80;;;;;;5048979;28;20318;-87
2023/06/13 13:00:20;;;;;;;11.05;10.75;;;30.20;97.70;;;;;;5043785;28;20250;-87
2023/06/13 13:02:48;;;;;;;10.65;10.35;;;30.30;95.60;;;;;;5042025;28;20270;-86
2023/06/13 13:05:18;;;;;;;10.63;10.32;;;30.00;94.50;;;;;;5041731;28;20232;-89
2023/06/13 13:07:49;;;;;;;10.40;10.10;;;30.00;96.90;;;;;;5042472;28;20236;-87
2023/06/13 13:10:30;;;;;;;10.32;10.02;;;30.40;96.10;;;;;;5042730;28;20295;-90
2023/06/13 13:13:06;;;;;;;10.00;9.70;;;30.60;96.90;;;;;;5041998;28;20232;-87
2023/06/13 13:15:36;;;;;;;10.05;9.75;;;30.80;95.30;;;;;;5042397;28;20278;-86
2023/06/13 13:18:31;;;;;;;10.20;9.90;;;30.80;97.20;;;;;;5042402;28;20235;-87
2023/06/13 13:21:00;;;;;;;10.35;10.05;;;30.60;94.00;;;;;;5043227;28;20254;-88
2023/06/13 13:23:29;;;;;;;10.50;10.20;;;30.20;95.30;;;;;;5041782;28;20224;-87
2023/06/13 13:29:05;;;;;;;10.65;10.35;;;30.40;96.00;;;;;;5023843;28;20247;-88
2023/06/13 13:31:35;;;;;;;10.60;10.30;;;30.70;94.50;;;;;;5042079;28;20231;-88
2023/06/13 13:34:03;;;;;;;10.95;10.65;;;31.00;94.70;;;;;;5042811;28;20231;-87
2023/06/13 13:36:31;;;;;;;10.90;10.60;;;31.10;93.80;;;;;;5042290;28;20220;-86
2023/06/13 13:39:11;;;;;;;11.20;10.90;;;31.10;94.30;;;;;;5042508;28;20241;-87
2023/06/13 13:41:39;;;;;;;11.10;10.80;;;31.20;94.50;;;;;;5046862;28;20263;-87
2023/06/13 13:44:10;;;;;;;10.88;10.57;;;31.30;93.10;;;;;;5061902;28;20223;-87
2023/06/13 13:46:38;;;;;;;10.52;10.23;;;31.30;92.80;;;;;;5062407;28;20211;-85
2023/06/13 13:49:16;;;;;;;10.57;10.27;;;31.30;92.20;;;;;;5061935;28;20263;-87
2023/06/13 13:51:47;;;;;;;10.50;10.20;;;31.60;92.50;;;;;;5060981;28;20267;-84
2023/06/13 13:54:25;;;;;;;10.50;10.20;;;31.80;90.10;;;;;;5051037;28;20242;-86
2023/06/13 13:59:42;;;;;;;10.70;10.40;;;32.30;91.10;;;;;;5043388;28;20211;-85
2023/06/13 14:02:10;;;;;;;10.85;10.55;;;32.20;89.30;;;;;;5041730;28;20259;-87
2023/06/13 14:04:38;;;;;;;10.70;10.40;;;31.70;93.10;;;;;;5042261;28;20279;-87
2023/06/13 14:09:47;;;;;;;10.73;10.43;;;31.40;92.20;;;;;;5040968;28;20256;-86
2023/06/13 14:12:15;;;;;;;10.50;10.20;;;31.50;90.70;;;;;;5040318;28;20255;-85
2023/06/13 14:20:12;;;;;;;10.48;10.18;;;31.80;87.40;;;;;;5040826;28;20289;-85
2023/06/13 14:22:42;;;;;;;10.23;9.93;;;31.80;90.10;;;;;;5042154;28;20270;-85
2023/06/13 14:25:11;;;;;;;10.00;9.70;;;31.70;89.90;;;;;;5041732;28;20219;-86
2023/06/13 14:27:40;;;;;;;10.18;9.88;;;31.30;88.70;;;;;;5042958;28;20238;-85
2023/06/13 14:30:36;;;;;;;10.50;10.20;;;31.00;90.50;;;;;;5041717;28;20242;-86
2023/06/13 14:33:05;;;;;;;10.20;9.90;;;30.70;89.10;;;;;;5041796;28;20231;-86
2023/06/13 14:35:35;;;;;;;9.90;9.60;;;31.00;90.10;;;;;;5040896;28;20231;-87
2023/06/13 14:38:04;;;;;;;10.10;9.80;;;31.30;89.50;;;;;;5040991;28;20270;-85
2023/06/13 14:40:33;;;;;;;9.60;9.30;;;31.30;88.30;;;;;;5038185;28;20259;-85
2023/06/13 14:43:04;;;;;;;9.93;9.63;;;31.10;87.80;;;;;;5041036;28;20235;-83
2023/06/13 14:45:35;;;;;;;9.98;9.68;;;30.90;90.80;;;;;;5041334;28;20235;-85
2023/06/13 14:48:03;;;;;;;10.15;9.85;;;31.00;89.10;;;;;;5041475;28;20228;-84
2023/06/13 14:50:31;;;;;;;10.07;9.77;;;31.30;90.70;;;;;;5023913;28;20264;-84
2023/06/13 14:53:02;;;;;;;10.38;10.07;;;31.50;90.00;;;;;;5020644;28;20267;-84
2023/06/13 14:55:30;;;;;;;10.40;10.10;;;31.40;88.40;;;;;;5020746;28;20231;-85
2023/06/13 14:57:59;;;;;;;10.15;9.85;;;31.40;90.10;;;;;;5020455;28;20239;-84
2023/06/13 15:00:29;;;;;;;10.10;9.80;;;31.60;85.60;;;;;;5020270;28;20259;-85
2023/06/13 15:03:08;;;;;;;9.82;9.52;;;31.60;87.60;;;;;;5020515;28;20271;-84
2023/06/13 15:05:37;;;;;;;9.77;9.48;;;31.60;90.20;;;;;;5020663;28;20222;-84
2023/06/13 15:08:16;;;;;;;9.73;9.43;;;31.50;90.40;;;;;;5020810;28;20216;-84
2023/06/13 15:10:44;;;;;;;9.85;9.55;;;31.60;90.30;;;;;;5020166;28;20311;-84
2023/06/13 15:13:15;;;;;;;9.93;9.63;;;31.70;86.30;;;;;;5022622;28;20259;-84
2023/06/13 15:15:52;;;;;;;10.00;9.70;;;31.70;86.80;;;;;;5021943;28;20236;-83
2023/06/13 15:18:32;;;;;;;9.90;9.60;;;31.60;84.50;;;;;;5022597;28;20231;-85
2023/06/13 15:21:00;;;;;;;10.20;9.90;;;31.10;87.20;;;;;;5020564;28;20258;-84
2023/06/13 15:23:29;;;;;;;10.00;9.70;;;31.10;88.50;;;;;;5019933;28;20227;-84
2023/06/13 15:25:59;;;;;;;9.90;9.60;;;31.40;89.30;;;;;;5020072;28;20224;-84
2023/06/13 15:28:28;;;;;;;10.18;9.88;;;31.40;88.60;;;;;;5020160;28;20288;-84
2023/06/13 15:30:58;;;;;;;9.88;9.57;;;31.40;89.10;;;;;;5021576;28;20232;-84
2023/06/13 15:33:36;;;;;;;9.75;9.45;;;31.50;89.30;;;;;;5020634;28;20252;-85
2023/06/13 15:36:05;;;;;;;9.77;9.48;;;31.80;86.90;;;;;;5021033;28;20318;-85
2023/06/13 15:38:34;;;;;;;9.70;9.40;;;31.90;87.90;;;;;;5022623;28;20227;-85
2023/06/13 15:41:04;;;;;;;9.70;9.40;;;31.80;89.20;;;;;;5020935;28;20739;-84
2023/06/13 15:43:33;;;;;;;9.90;9.60;;;31.80;86.40;;;;;;5021810;28;20242;-84
2023/06/13 15:46:03;;;;;;;10.00;9.70;;;31.80;88.30;;;;;;5020841;28;20216;-83
2023/06/13 15:48:41;;;;;;;10.02;9.73;;;31.80;87.70;;;;;;5020597;28;20330;-84
2023/06/13 15:51:10;;;;;;;10.20;9.90;;;31.80;86.80;;;;;;5021248;28;20228;-85
2023/06/13 15:53:40;;;;;;;10.30;10.00;;;32.00;90.20;;;;;;5021120;28;20232;-85
2023/06/13 15:56:09;;;;;;;10.10;9.80;;;32.10;86.90;;;;;;5021593;28;20236;-85
2023/06/13 15:58:48;;;;;;;9.73;9.43;;;32.20;87.50;;;;;;5024586;28;20226;-86
2023/06/13 16:01:18;;;;;;;9.57;9.27;;;31.90;86.10;;;;;;5033426;28;20228;-86
2023/06/13 16:03:49;;;;;;;10.00;9.70;;;31.80;87.70;;;;;;5023729;28;20231;-84
2023/06/13 16:06:17;;;;;;;9.55;9.25;;;31.70;88.40;;;;;;5022361;28;20236;-84
2023/06/13 16:08:48;;;;;;;9.60;9.30;;;31.60;88.40;;;;;;5022967;28;20263;-86
2023/06/13 16:11:16;;;;;;;9.90;9.60;;;31.40;86.20;;;;;;5027231;28;20271;-84
2023/06/13 16:14:07;;;;;;;;;;;;;;;;;;;;;
2023/06/13 16:31:56;;;;;;;9.48;9.18;;;31.00;86.80;;;;;;5004621;28;20262;-90
2023/06/13 16:34:36;;;;;;;9.38;9.07;;;31.10;87.90;;;;;;5006770;28;20233;-88
2023/06/13 16:37:17;;;;;;;9.23;8.98;;;31.10;86.00;;;;;;5007089;28;20256;-88
2023/06/13 16:39:48;;;;;;;9.30;9.00;;;31.10;87.10;;;;;;5005596;28;20255;-87